sensor_id;sensor_type;location;lat;lon;timestamp;temperature;humidity
48876;DHT22;34689;51.644;5.618;2023-04-24T00:01:15;10.50;99.90
48876;DHT22;34689;51.644;5.618;2023-04-24T00:03:42;10.50;99.90
48876;DHT22;34689;51.644;5.618;2023-04-24T00:06:08;10.50;99.90
48876;DHT22;34689;51.644;5.618;2023-04-24T00:08:36;10.50;99.90
48876;DHT22;34689;51.644;5.618;2023-04-24T00:11:04;10.50;99.90
48876;DHT22;34689;51.644;5.618;2023-04-24T00:13:30;10.50;99.90
48876;DHT22;34689;51.644;5.618;2023-04-24T00:15:56;10.50;99.90
48876;DHT22;34689;51.644;5.618;2023-04-24T00:18:24;10.50;99.90
48876;DHT22;34689;51.644;5.618;2023-04-24T00:20:50;10.50;99.90
48876;DHT22;34689;51.644;5.618;2023-04-24T00:23:16;10.50;99.90
48876;DHT22;34689;51.644;5.618;2023-04-24T00:25:41;10.50;99.90
48876;DHT22;34689;51.644;5.618;2023-04-24T00:28:07;10.50;99.90
48876;DHT22;34689;51.644;5.618;2023-04-24T00:30:33;10.50;99.90
48876;DHT22;34689;51.644;5.618;2023-04-24T00:32:58;10.50;99.90
48876;DHT22;34689;51.644;5.618;2023-04-24T00:35:29;10.50;99.90
48876;DHT22;34689;51.644;5.618;2023-04-24T00:37:54;10.50;99.90
48876;DHT22;34689;51.644;5.618;2023-04-24T00:40:22;10.50;99.90
48876;DHT22;34689;51.644;5.618;2023-04-24T00:42:51;10.50;99.90
48876;DHT22;34689;51.644;5.618;2023-04-24T00:45:17;10.50;99.90
48876;DHT22;34689;51.644;5.618;2023-04-24T00:47:43;10.50;99.90
48876;DHT22;34689;51.644;5.618;2023-04-24T00:50:10;10.50;99.90
48876;DHT22;34689;51.644;5.618;2023-04-24T00:52:40;10.50;99.90
48876;DHT22;34689;51.644;5.618;2023-04-24T00:55:09;10.50;99.90
48876;DHT22;34689;51.644;5.618;2023-04-24T00:57:36;10.50;99.90
48876;DHT22;34689;51.644;5.618;2023-04-24T01:00:02;10.50;99.90
48876;DHT22;34689;51.644;5.618;2023-04-24T01:02:31;10.50;99.90
48876;DHT22;34689;51.644;5.618;2023-04-24T01:05:00;10.40;99.90
48876;DHT22;34689;51.644;5.618;2023-04-24T01:07:31;10.40;99.90
48876;DHT22;34689;51.644;5.618;2023-04-24T01:09:57;10.30;99.90
48876;DHT22;34689;51.644;5.618;2023-04-24T01:12:22;10.30;99.90
48876;DHT22;34689;51.644;5.618;2023-04-24T01:14:48;10.30;99.90
48876;DHT22;34689;51.644;5.618;2023-04-24T01:17:14;10.20;99.90
48876;DHT22;34689;51.644;5.618;2023-04-24T01:19:43;10.20;99.90
48876;DHT22;34689;51.644;5.618;2023-04-24T01:22:13;10.30;99.90
48876;DHT22;34689;51.644;5.618;2023-04-24T01:24:40;10.20;99.90
48876;DHT22;34689;51.644;5.618;2023-04-24T01:27:07;10.20;99.90
48876;DHT22;34689;51.644;5.618;2023-04-24T01:29:36;10.20;99.90
48876;DHT22;34689;51.644;5.618;2023-04-24T01:32:06;10.20;99.90
48876;DHT22;34689;51.644;5.618;2023-04-24T01:34:32;10.20;99.90
48876;DHT22;34689;51.644;5.618;2023-04-24T01:36:58;10.20;99.90
48876;DHT22;34689;51.644;5.618;2023-04-24T01:39:24;10.20;99.90
48876;DHT22;34689;51.644;5.618;2023-04-24T01:41:54;10.20;99.90
48876;DHT22;34689;51.644;5.618;2023-04-24T01:44:21;10.20;99.90
48876;DHT22;34689;51.644;5.618;2023-04-24T01:46:47;10.20;99.90
48876;DHT22;34689;51.644;5.618;2023-04-24T01:49:13;10.10;99.90
48876;DHT22;34689;51.644;5.618;2023-04-24T01:51:38;10.10;99.90
48876;DHT22;34689;51.644;5.618;2023-04-24T01:54:04;10.10;99.90
48876;DHT22;34689;51.644;5.618;2023-04-24T01:56:35;10.10;99.90
48876;DHT22;34689;51.644;5.618;2023-04-24T01:59:05;10.00;99.90
48876;DHT22;34689;51.644;5.618;2023-04-24T02:01:55;10.00;99.90
48876;DHT22;34689;51.644;5.618;2023-04-24T02:04:23;10.00;99.90
48876;DHT22;34689;51.644;5.618;2023-04-24T02:06:49;9.90;99.90
48876;DHT22;34689;51.644;5.618;2023-04-24T02:09:17;9.90;99.90
48876;DHT22;34689;51.644;5.618;2023-04-24T02:11:42;9.90;99.90
48876;DHT22;34689;51.644;5.618;2023-04-24T02:14:08;9.90;99.90
48876;DHT22;34689;51.644;5.618;2023-04-24T02:16:53;9.90;99.90
48876;DHT22;34689;51.644;5.618;2023-04-24T02:19:19;9.90;99.90
48876;DHT22;34689;51.644;5.618;2023-04-24T02:21:47;9.80;99.90
48876;DHT22;34689;51.644;5.618;2023-04-24T02:24:31;9.80;99.90
48876;DHT22;34689;51.644;5.618;2023-04-24T02:26:57;9.80;99.90
48876;DHT22;34689;51.644;5.618;2023-04-24T02:29:23;9.80;99.90
48876;DHT22;34689;51.644;5.618;2023-04-24T02:31:49;9.80;99.90
48876;DHT22;34689;51.644;5.618;2023-04-24T02:34:14;9.80;99.90
48876;DHT22;34689;51.644;5.618;2023-04-24T02:36:40;9.80;99.90
48876;DHT22;34689;51.644;5.618;2023-04-24T02:39:06;9.80;99.90
48876;DHT22;34689;51.644;5.618;2023-04-24T02:41:31;9.80;99.90
48876;DHT22;34689;51.644;5.618;2023-04-24T02:43:58;9.80;99.90
48876;DHT22;34689;51.644;5.618;2023-04-24T02:46:24;9.80;99.90
48876;DHT22;34689;51.644;5.618;2023-04-24T02:48:50;9.70;99.90
48876;DHT22;34689;51.644;5.618;2023-04-24T02:51:15;9.70;99.90
48876;DHT22;34689;51.644;5.618;2023-04-24T02:53:44;9.70;99.90
48876;DHT22;34689;51.644;5.618;2023-04-24T02:56:09;9.70;99.90
48876;DHT22;34689;51.644;5.618;2023-04-24T02:58:37;9.70;99.90
48876;DHT22;34689;51.644;5.618;2023-04-24T03:01:03;9.70;99.90
48876;DHT22;34689;51.644;5.618;2023-04-24T03:03:30;9.70;99.90
48876;DHT22;34689;51.644;5.618;2023-04-24T03:05:56;9.70;99.90
48876;DHT22;34689;51.644;5.618;2023-04-24T03:08:22;9.70;99.90
48876;DHT22;34689;51.644;5.618;2023-04-24T03:10:48;9.60;99.90
48876;DHT22;34689;51.644;5.618;2023-04-24T03:13:16;9.70;99.90
48876;DHT22;34689;51.644;5.618;2023-04-24T03:15:44;9.70;99.90
48876;DHT22;34689;51.644;5.618;2023-04-24T03:18:11;9.60;99.90
48876;DHT22;34689;51.644;5.618;2023-04-24T03:20:37;9.60;99.90
48876;DHT22;34689;51.644;5.618;2023-04-24T03:23:03;9.60;99.90
48876;DHT22;34689;51.644;5.618;2023-04-24T03:25:29;9.70;99.90
48876;DHT22;34689;51.644;5.618;2023-04-24T03:27:55;9.60;99.90
48876;DHT22;34689;51.644;5.618;2023-04-24T03:30:23;9.60;99.90
48876;DHT22;34689;51.644;5.618;2023-04-24T03:32:48;9.60;99.90
48876;DHT22;34689;51.644;5.618;2023-04-24T03:35:17;9.70;99.90
48876;DHT22;34689;51.644;5.618;2023-04-24T03:37:42;9.70;99.90
48876;DHT22;34689;51.644;5.618;2023-04-24T03:40:08;9.60;99.90
48876;DHT22;34689;51.644;5.618;2023-04-24T03:42:36;9.60;99.90
48876;DHT22;34689;51.644;5.618;2023-04-24T03:45:02;9.70;99.90
48876;DHT22;34689;51.644;5.618;2023-04-24T03:47:28;9.70;99.90
48876;DHT22;34689;51.644;5.618;2023-04-24T03:49:56;9.70;99.90
48876;DHT22;34689;51.644;5.618;2023-04-24T03:52:24;9.70;99.90
48876;DHT22;34689;51.644;5.618;2023-04-24T03:54:50;9.60;99.90
48876;DHT22;34689;51.644;5.618;2023-04-24T03:57:16;9.60;99.90
48876;DHT22;34689;51.644;5.618;2023-04-24T03:59:42;9.70;99.90
48876;DHT22;34689;51.644;5.618;2023-04-24T04:02:07;9.70;99.90
48876;DHT22;34689;51.644;5.618;2023-04-24T04:04:35;9.70;99.90
48876;DHT22;34689;51.644;5.618;2023-04-24T04:07:01;9.60;99.90
48876;DHT22;34689;51.644;5.618;2023-04-24T04:09:28;9.60;99.90
48876;DHT22;34689;51.644;5.618;2023-04-24T04:11:56;9.70;99.90
48876;DHT22;34689;51.644;5.618;2023-04-24T04:14:22;9.60;99.90
48876;DHT22;34689;51.644;5.618;2023-04-24T04:16:51;9.60;99.90
48876;DHT22;34689;51.644;5.618;2023-04-24T04:19:16;9.70;99.90
48876;DHT22;34689;51.644;5.618;2023-04-24T04:21:42;9.60;99.90
48876;DHT22;34689;51.644;5.618;2023-04-24T04:24:10;9.60;99.90
48876;DHT22;34689;51.644;5.618;2023-04-24T04:26:35;9.60;99.90
48876;DHT22;34689;51.644;5.618;2023-04-24T04:29:03;9.70;99.90
48876;DHT22;34689;51.644;5.618;2023-04-24T04:31:34;9.60;99.90
48876;DHT22;34689;51.644;5.618;2023-04-24T04:33:59;9.60;99.90
48876;DHT22;34689;51.644;5.618;2023-04-24T04:36:26;9.60;99.90
48876;DHT22;34689;51.644;5.618;2023-04-24T04:38:54;9.60;99.90
48876;DHT22;34689;51.644;5.618;2023-04-24T04:41:22;9.60;99.90
48876;DHT22;34689;51.644;5.618;2023-04-24T04:43:50;9.60;99.90
48876;DHT22;34689;51.644;5.618;2023-04-24T04:46:18;9.60;99.90
48876;DHT22;34689;51.644;5.618;2023-04-24T04:48:44;9.60;99.90
48876;DHT22;34689;51.644;5.618;2023-04-24T04:51:13;9.50;99.90
48876;DHT22;34689;51.644;5.618;2023-04-24T04:53:39;9.50;99.90
48876;DHT22;34689;51.644;5.618;2023-04-24T04:56:05;9.50;99.90
48876;DHT22;34689;51.644;5.618;2023-04-24T04:58:30;9.50;99.90
48876;DHT22;34689;51.644;5.618;2023-04-24T05:00:56;9.40;99.90
48876;DHT22;34689;51.644;5.618;2023-04-24T05:03:22;9.40;99.90
48876;DHT22;34689;51.644;5.618;2023-04-24T05:05:48;9.40;99.90
48876;DHT22;34689;51.644;5.618;2023-04-24T05:08:14;9.40;99.90
48876;DHT22;34689;51.644;5.618;2023-04-24T05:10:39;9.40;99.90
48876;DHT22;34689;51.644;5.618;2023-04-24T05:13:05;9.40;99.90
48876;DHT22;34689;51.644;5.618;2023-04-24T05:15:30;9.40;99.90
48876;DHT22;34689;51.644;5.618;2023-04-24T05:17:56;9.30;99.90
48876;DHT22;34689;51.644;5.618;2023-04-24T05:20:22;9.30;99.90
48876;DHT22;34689;51.644;5.618;2023-04-24T05:22:48;9.30;99.90
48876;DHT22;34689;51.644;5.618;2023-04-24T05:25:13;9.30;99.90
48876;DHT22;34689;51.644;5.618;2023-04-24T05:27:39;9.30;99.90
48876;DHT22;34689;51.644;5.618;2023-04-24T05:30:06;9.20;99.90
48876;DHT22;34689;51.644;5.618;2023-04-24T05:32:31;9.20;99.90
48876;DHT22;34689;51.644;5.618;2023-04-24T05:35:17;9.20;99.90
48876;DHT22;34689;51.644;5.618;2023-04-24T05:37:44;9.20;99.90
48876;DHT22;34689;51.644;5.618;2023-04-24T05:40:10;9.20;99.90
48876;DHT22;34689;51.644;5.618;2023-04-24T05:42:36;9.20;99.90
48876;DHT22;34689;51.644;5.618;2023-04-24T05:45:02;9.20;99.90
48876;DHT22;34689;51.644;5.618;2023-04-24T05:47:28;9.20;99.90
48876;DHT22;34689;51.644;5.618;2023-04-24T05:49:54;9.10;99.90
48876;DHT22;34689;51.644;5.618;2023-04-24T05:52:22;9.10;99.90
48876;DHT22;34689;51.644;5.618;2023-04-24T05:54:47;9.10;99.90
48876;DHT22;34689;51.644;5.618;2023-04-24T05:57:13;9.10;99.90
48876;DHT22;34689;51.644;5.618;2023-04-24T05:59:40;9.10;99.90
48876;DHT22;34689;51.644;5.618;2023-04-24T06:02:06;9.10;99.90
48876;DHT22;34689;51.644;5.618;2023-04-24T06:04:35;9.10;99.90
48876;DHT22;34689;51.644;5.618;2023-04-24T06:07:00;9.10;99.90
48876;DHT22;34689;51.644;5.618;2023-04-24T06:09:26;9.10;99.90
48876;DHT22;34689;51.644;5.618;2023-04-24T06:11:54;9.10;99.90
48876;DHT22;34689;51.644;5.618;2023-04-24T06:14:20;9.10;99.90
48876;DHT22;34689;51.644;5.618;2023-04-24T06:16:46;9.10;99.90
48876;DHT22;34689;51.644;5.618;2023-04-24T06:19:12;9.10;99.90
48876;DHT22;34689;51.644;5.618;2023-04-24T06:21:37;9.20;99.90
48876;DHT22;34689;51.644;5.618;2023-04-24T06:24:03;9.20;99.90
48876;DHT22;34689;51.644;5.618;2023-04-24T06:26:32;9.10;99.90
48876;DHT22;34689;51.644;5.618;2023-04-24T06:28:57;9.10;99.90
48876;DHT22;34689;51.644;5.618;2023-04-24T06:31:24;9.10;99.90
48876;DHT22;34689;51.644;5.618;2023-04-24T06:33:50;9.10;99.90
48876;DHT22;34689;51.644;5.618;2023-04-24T06:36:16;9.10;99.90
48876;DHT22;34689;51.644;5.618;2023-04-24T06:38:42;9.10;99.90
48876;DHT22;34689;51.644;5.618;2023-04-24T06:41:09;9.10;99.90
48876;DHT22;34689;51.644;5.618;2023-04-24T06:43:35;9.10;99.90
48876;DHT22;34689;51.644;5.618;2023-04-24T06:46:00;9.10;99.90
48876;DHT22;34689;51.644;5.618;2023-04-24T06:48:29;9.10;99.90
48876;DHT22;34689;51.644;5.618;2023-04-24T06:50:55;9.10;99.90
48876;DHT22;34689;51.644;5.618;2023-04-24T06:53:20;9.10;99.90
48876;DHT22;34689;51.644;5.618;2023-04-24T06:55:46;9.10;99.90
48876;DHT22;34689;51.644;5.618;2023-04-24T06:58:12;9.10;99.90
48876;DHT22;34689;51.644;5.618;2023-04-24T07:00:41;9.10;99.90
48876;DHT22;34689;51.644;5.618;2023-04-24T07:03:06;9.10;99.90
48876;DHT22;34689;51.644;5.618;2023-04-24T07:05:32;9.10;99.90
48876;DHT22;34689;51.644;5.618;2023-04-24T07:08:00;9.10;99.90
48876;DHT22;34689;51.644;5.618;2023-04-24T07:10:26;9.10;99.90
48876;DHT22;34689;51.644;5.618;2023-04-24T07:12:54;9.20;99.90
48876;DHT22;34689;51.644;5.618;2023-04-24T07:15:20;9.10;99.90
48876;DHT22;34689;51.644;5.618;2023-04-24T07:17:48;9.20;99.90
48876;DHT22;34689;51.644;5.618;2023-04-24T07:20:17;9.10;99.90
48876;DHT22;34689;51.644;5.618;2023-04-24T07:22:43;9.10;99.90
48876;DHT22;34689;51.644;5.618;2023-04-24T07:25:11;9.20;99.90
48876;DHT22;34689;51.644;5.618;2023-04-24T07:27:37;9.20;99.90
48876;DHT22;34689;51.644;5.618;2023-04-24T07:30:04;9.20;99.90
48876;DHT22;34689;51.644;5.618;2023-04-24T07:32:30;9.20;99.90
48876;DHT22;34689;51.644;5.618;2023-04-24T07:34:55;9.10;99.90
48876;DHT22;34689;51.644;5.618;2023-04-24T07:37:23;9.20;99.90
48876;DHT22;34689;51.644;5.618;2023-04-24T07:39:49;9.10;99.90
48876;DHT22;34689;51.644;5.618;2023-04-24T07:42:15;9.10;99.90
48876;DHT22;34689;51.644;5.618;2023-04-24T07:44:43;9.10;99.90
48876;DHT22;34689;51.644;5.618;2023-04-24T07:47:08;9.10;99.90
48876;DHT22;34689;51.644;5.618;2023-04-24T07:49:34;9.10;99.90
48876;DHT22;34689;51.644;5.618;2023-04-24T07:52:00;9.10;99.90
48876;DHT22;34689;51.644;5.618;2023-04-24T07:54:28;9.00;99.90
48876;DHT22;34689;51.644;5.618;2023-04-24T07:56:54;9.00;99.90
48876;DHT22;34689;51.644;5.618;2023-04-24T07:59:19;9.00;99.90
48876;DHT22;34689;51.644;5.618;2023-04-24T08:01:45;9.00;99.90
48876;DHT22;34689;51.644;5.618;2023-04-24T08:04:14;9.00;99.90
48876;DHT22;34689;51.644;5.618;2023-04-24T08:06:40;9.00;99.90
48876;DHT22;34689;51.644;5.618;2023-04-24T08:09:08;9.00;99.90
48876;DHT22;34689;51.644;5.618;2023-04-24T08:11:36;9.00;99.90
48876;DHT22;34689;51.644;5.618;2023-04-24T08:14:04;9.00;99.90
48876;DHT22;34689;51.644;5.618;2023-04-24T08:16:30;8.90;99.90
48876;DHT22;34689;51.644;5.618;2023-04-24T08:18:55;8.90;99.90
48876;DHT22;34689;51.644;5.618;2023-04-24T08:21:21;9.00;99.90
48876;DHT22;34689;51.644;5.618;2023-04-24T08:23:47;9.00;99.90
48876;DHT22;34689;51.644;5.618;2023-04-24T08:26:16;9.00;99.90
48876;DHT22;34689;51.644;5.618;2023-04-24T08:28:42;9.00;99.90
48876;DHT22;34689;51.644;5.618;2023-04-24T08:31:10;9.00;99.90
48876;DHT22;34689;51.644;5.618;2023-04-24T08:33:36;9.00;99.90
48876;DHT22;34689;51.644;5.618;2023-04-24T08:36:05;9.00;99.90
48876;DHT22;34689;51.644;5.618;2023-04-24T08:38:31;9.00;99.90
48876;DHT22;34689;51.644;5.618;2023-04-24T08:40:58;9.10;99.90
48876;DHT22;34689;51.644;5.618;2023-04-24T08:43:28;9.00;99.90
48876;DHT22;34689;51.644;5.618;2023-04-24T08:45:59;9.00;99.90
48876;DHT22;34689;51.644;5.618;2023-04-24T08:48:28;9.00;99.90
48876;DHT22;34689;51.644;5.618;2023-04-24T08:50:54;9.00;99.90
48876;DHT22;34689;51.644;5.618;2023-04-24T08:53:22;9.00;99.90
48876;DHT22;34689;51.644;5.618;2023-04-24T08:55:49;9.10;99.90
48876;DHT22;34689;51.644;5.618;2023-04-24T08:58:20;9.10;99.90
48876;DHT22;34689;51.644;5.618;2023-04-24T09:00:47;9.00;99.90
48876;DHT22;34689;51.644;5.618;2023-04-24T09:03:17;9.00;99.90
48876;DHT22;34689;51.644;5.618;2023-04-24T09:05:51;9.00;99.90
48876;DHT22;34689;51.644;5.618;2023-04-24T09:08:22;9.00;99.90
48876;DHT22;34689;51.644;5.618;2023-04-24T09:10:49;9.10;99.90
48876;DHT22;34689;51.644;5.618;2023-04-24T09:13:15;9.10;99.90
48876;DHT22;34689;51.644;5.618;2023-04-24T09:15:46;9.10;99.90
48876;DHT22;34689;51.644;5.618;2023-04-24T09:18:14;9.10;99.90
48876;DHT22;34689;51.644;5.618;2023-04-24T09:21:08;9.10;99.90
48876;DHT22;34689;51.644;5.618;2023-04-24T09:23:36;9.10;99.90
48876;DHT22;34689;51.644;5.618;2023-04-24T09:26:11;9.10;99.90
48876;DHT22;34689;51.644;5.618;2023-04-24T09:28:42;9.10;99.90
48876;DHT22;34689;51.644;5.618;2023-04-24T09:31:16;9.20;99.90
48876;DHT22;34689;51.644;5.618;2023-04-24T09:33:57;9.20;99.90
48876;DHT22;34689;51.644;5.618;2023-04-24T09:39:05;9.40;99.90
48876;DHT22;34689;51.644;5.618;2023-04-24T09:44:20;9.50;99.90
48876;DHT22;34689;51.644;5.618;2023-04-24T09:46:59;9.50;99.90
48876;DHT22;34689;51.644;5.618;2023-04-24T09:49:31;9.50;99.90
48876;DHT22;34689;51.644;5.618;2023-04-24T09:52:09;9.60;99.90
48876;DHT22;34689;51.644;5.618;2023-04-24T09:54:35;9.60;99.90
48876;DHT22;34689;51.644;5.618;2023-04-24T09:57:02;9.60;99.90
48876;DHT22;34689;51.644;5.618;2023-04-24T09:59:29;9.60;99.90
48876;DHT22;34689;51.644;5.618;2023-04-24T10:01:55;9.50;99.90
48876;DHT22;34689;51.644;5.618;2023-04-24T10:04:24;9.50;99.90
48876;DHT22;34689;51.644;5.618;2023-04-24T10:06:54;9.50;99.90
48876;DHT22;34689;51.644;5.618;2023-04-24T10:09:22;9.50;99.90
48876;DHT22;34689;51.644;5.618;2023-04-24T10:11:49;9.40;99.90
48876;DHT22;34689;51.644;5.618;2023-04-24T10:14:17;9.40;99.90
48876;DHT22;34689;51.644;5.618;2023-04-24T10:16:46;9.40;99.90
48876;DHT22;34689;51.644;5.618;2023-04-24T10:19:14;9.40;99.90
48876;DHT22;34689;51.644;5.618;2023-04-24T10:21:44;9.40;99.90
48876;DHT22;34689;51.644;5.618;2023-04-24T10:24:19;9.30;99.90
48876;DHT22;34689;51.644;5.618;2023-04-24T10:26:54;9.30;99.90
48876;DHT22;34689;51.644;5.618;2023-04-24T10:29:24;9.40;99.90
48876;DHT22;34689;51.644;5.618;2023-04-24T10:31:57;9.40;99.90
48876;DHT22;34689;51.644;5.618;2023-04-24T10:34:27;9.40;99.90
48876;DHT22;34689;51.644;5.618;2023-04-24T10:36:57;9.40;99.90
48876;DHT22;34689;51.644;5.618;2023-04-24T10:39:23;9.40;99.90
48876;DHT22;34689;51.644;5.618;2023-04-24T10:41:49;9.50;99.90
48876;DHT22;34689;51.644;5.618;2023-04-24T10:44:22;9.40;99.90
48876;DHT22;34689;51.644;5.618;2023-04-24T10:46:53;9.40;99.90
48876;DHT22;34689;51.644;5.618;2023-04-24T10:49:31;9.40;99.90
48876;DHT22;34689;51.644;5.618;2023-04-24T10:52:01;9.30;99.90
48876;DHT22;34689;51.644;5.618;2023-04-24T10:54:41;9.30;99.90
48876;DHT22;34689;51.644;5.618;2023-04-24T10:59:46;9.30;99.90
48876;DHT22;34689;51.644;5.618;2023-04-24T11:02:17;9.30;99.90
48876;DHT22;34689;51.644;5.618;2023-04-24T11:04:44;9.30;99.90
48876;DHT22;34689;51.644;5.618;2023-04-24T11:07:11;9.40;99.90
48876;DHT22;34689;51.644;5.618;2023-04-24T11:09:37;9.40;99.90
48876;DHT22;34689;51.644;5.618;2023-04-24T11:12:06;9.50;99.90
48876;DHT22;34689;51.644;5.618;2023-04-24T11:20:17;9.60;99.90
48876;DHT22;34689;51.644;5.618;2023-04-24T11:22:43;9.70;99.90
48876;DHT22;34689;51.644;5.618;2023-04-24T11:25:09;9.70;99.90
48876;DHT22;34689;51.644;5.618;2023-04-24T11:27:44;9.70;99.90
48876;DHT22;34689;51.644;5.618;2023-04-24T11:30:12;9.70;99.90
48876;DHT22;34689;51.644;5.618;2023-04-24T11:32:42;9.80;99.90
48876;DHT22;34689;51.644;5.618;2023-04-24T11:37:41;9.90;99.90
48876;DHT22;34689;51.644;5.618;2023-04-24T11:40:09;9.90;99.90
48876;DHT22;34689;51.644;5.618;2023-04-24T11:42:36;9.90;99.90
48876;DHT22;34689;51.644;5.618;2023-04-24T11:45:02;9.90;99.90
48876;DHT22;34689;51.644;5.618;2023-04-24T11:47:35;9.90;99.90
48876;DHT22;34689;51.644;5.618;2023-04-24T11:50:02;9.80;99.90
48876;DHT22;34689;51.644;5.618;2023-04-24T11:52:30;9.80;99.90
48876;DHT22;34689;51.644;5.618;2023-04-24T11:54:56;9.80;99.90
48876;DHT22;34689;51.644;5.618;2023-04-24T11:57:24;9.70;99.90
48876;DHT22;34689;51.644;5.618;2023-04-24T11:59:52;9.70;99.90
48876;DHT22;34689;51.644;5.618;2023-04-24T12:04:48;9.70;99.90
48876;DHT22;34689;51.644;5.618;2023-04-24T12:07:16;9.60;99.90
48876;DHT22;34689;51.644;5.618;2023-04-24T12:10:04;9.60;99.90
48876;DHT22;34689;51.644;5.618;2023-04-24T12:12:30;9.50;99.90
48876;DHT22;34689;51.644;5.618;2023-04-24T12:14:57;9.60;99.90
48876;DHT22;34689;51.644;5.618;2023-04-24T12:17:31;9.60;99.90
48876;DHT22;34689;51.644;5.618;2023-04-24T12:20:06;9.60;99.90
48876;DHT22;34689;51.644;5.618;2023-04-24T12:22:58;9.70;99.90
48876;DHT22;34689;51.644;5.618;2023-04-24T12:25:28;9.80;99.90
48876;DHT22;34689;51.644;5.618;2023-04-24T12:28:08;9.90;99.90
48876;DHT22;34689;51.644;5.618;2023-04-24T12:30:47;9.90;99.90
48876;DHT22;34689;51.644;5.618;2023-04-24T12:33:22;10.00;99.90
48876;DHT22;34689;51.644;5.618;2023-04-24T12:35:51;10.00;99.90
48876;DHT22;34689;51.644;5.618;2023-04-24T12:38:22;10.00;99.90
48876;DHT22;34689;51.644;5.618;2023-04-24T12:41:04;10.10;99.90
48876;DHT22;34689;51.644;5.618;2023-04-24T12:43:30;10.00;99.90
48876;DHT22;34689;51.644;5.618;2023-04-24T12:45:57;10.00;99.90
48876;DHT22;34689;51.644;5.618;2023-04-24T12:48:29;10.00;99.90
48876;DHT22;34689;51.644;5.618;2023-04-24T12:51:01;10.00;99.90
48876;DHT22;34689;51.644;5.618;2023-04-24T12:53:28;10.00;99.90
48876;DHT22;34689;51.644;5.618;2023-04-24T12:55:56;10.00;99.90
48876;DHT22;34689;51.644;5.618;2023-04-24T12:58:24;9.90;99.90
48876;DHT22;34689;51.644;5.618;2023-04-24T13:00:50;9.80;99.90
48876;DHT22;34689;51.644;5.618;2023-04-24T13:03:17;9.80;99.90
48876;DHT22;34689;51.644;5.618;2023-04-24T13:05:43;9.70;99.90
48876;DHT22;34689;51.644;5.618;2023-04-24T13:08:09;9.70;99.90
48876;DHT22;34689;51.644;5.618;2023-04-24T13:10:35;9.60;99.90
48876;DHT22;34689;51.644;5.618;2023-04-24T13:13:01;9.60;99.90
48876;DHT22;34689;51.644;5.618;2023-04-24T13:15:27;9.60;99.90
48876;DHT22;34689;51.644;5.618;2023-04-24T13:17:52;9.60;99.90
48876;DHT22;34689;51.644;5.618;2023-04-24T13:20:18;9.70;99.90
48876;DHT22;34689;51.644;5.618;2023-04-24T13:22:44;9.70;99.90
48876;DHT22;34689;51.644;5.618;2023-04-24T13:25:09;9.70;99.90
48876;DHT22;34689;51.644;5.618;2023-04-24T13:27:37;9.90;99.90
48876;DHT22;34689;51.644;5.618;2023-04-24T13:30:06;10.20;99.90
48876;DHT22;34689;51.644;5.618;2023-04-24T13:32:33;10.40;99.90
48876;DHT22;34689;51.644;5.618;2023-04-24T13:35:00;10.60;99.90
48876;DHT22;34689;51.644;5.618;2023-04-24T13:37:28;10.60;99.90
48876;DHT22;34689;51.644;5.618;2023-04-24T13:39:57;10.60;99.90
48876;DHT22;34689;51.644;5.618;2023-04-24T13:42:23;10.60;99.90
48876;DHT22;34689;51.644;5.618;2023-04-24T13:44:49;10.70;99.90
48876;DHT22;34689;51.644;5.618;2023-04-24T13:47:17;10.70;99.90
48876;DHT22;34689;51.644;5.618;2023-04-24T13:49:42;10.80;99.90
48876;DHT22;34689;51.644;5.618;2023-04-24T13:52:11;10.70;99.90
48876;DHT22;34689;51.644;5.618;2023-04-24T13:54:39;10.70;99.90
48876;DHT22;34689;51.644;5.618;2023-04-24T13:57:07;10.70;99.90
48876;DHT22;34689;51.644;5.618;2023-04-24T13:59:36;10.70;99.90
48876;DHT22;34689;51.644;5.618;2023-04-24T14:02:02;10.70;99.90
48876;DHT22;34689;51.644;5.618;2023-04-24T14:04:30;10.60;99.90
48876;DHT22;34689;51.644;5.618;2023-04-24T14:06:56;10.60;99.90
48876;DHT22;34689;51.644;5.618;2023-04-24T14:09:21;10.60;99.90
48876;DHT22;34689;51.644;5.618;2023-04-24T14:11:47;10.50;99.90
48876;DHT22;34689;51.644;5.618;2023-04-24T14:14:13;10.50;99.90
48876;DHT22;34689;51.644;5.618;2023-04-24T14:16:38;10.50;99.90
48876;DHT22;34689;51.644;5.618;2023-04-24T14:19:05;10.50;99.90
48876;DHT22;34689;51.644;5.618;2023-04-24T14:21:32;10.50;99.90
48876;DHT22;34689;51.644;5.618;2023-04-24T14:23:57;10.50;99.90
48876;DHT22;34689;51.644;5.618;2023-04-24T14:26:26;10.50;99.90
48876;DHT22;34689;51.644;5.618;2023-04-24T14:28:52;10.60;99.90
48876;DHT22;34689;51.644;5.618;2023-04-24T14:31:18;10.60;99.90
48876;DHT22;34689;51.644;5.618;2023-04-24T14:33:44;10.60;99.90
48876;DHT22;34689;51.644;5.618;2023-04-24T14:36:09;10.60;99.90
48876;DHT22;34689;51.644;5.618;2023-04-24T14:38:41;10.60;99.90
48876;DHT22;34689;51.644;5.618;2023-04-24T14:41:07;10.70;99.90
48876;DHT22;34689;51.644;5.618;2023-04-24T14:43:35;10.70;99.90
48876;DHT22;34689;51.644;5.618;2023-04-24T14:46:02;10.70;99.90
48876;DHT22;34689;51.644;5.618;2023-04-24T14:48:31;10.80;99.90
48876;DHT22;34689;51.644;5.618;2023-04-24T14:51:02;10.80;99.90
48876;DHT22;34689;51.644;5.618;2023-04-24T14:53:29;10.90;99.90
48876;DHT22;34689;51.644;5.618;2023-04-24T14:55:58;10.90;99.90
48876;DHT22;34689;51.644;5.618;2023-04-24T14:58:29;10.90;99.90
48876;DHT22;34689;51.644;5.618;2023-04-24T15:00:57;10.80;99.90
48876;DHT22;34689;51.644;5.618;2023-04-24T15:03:26;10.80;99.90
48876;DHT22;34689;51.644;5.618;2023-04-24T15:05:55;10.70;99.90
48876;DHT22;34689;51.644;5.618;2023-04-24T15:08:20;10.70;99.90
48876;DHT22;34689;51.644;5.618;2023-04-24T15:10:49;10.60;99.90
48876;DHT22;34689;51.644;5.618;2023-04-24T15:13:17;10.60;99.90
48876;DHT22;34689;51.644;5.618;2023-04-24T15:15:43;10.50;99.90
48876;DHT22;34689;51.644;5.618;2023-04-24T15:18:14;10.40;99.90
48876;DHT22;34689;51.644;5.618;2023-04-24T15:20:39;10.30;99.90
48876;DHT22;34689;51.644;5.618;2023-04-24T15:23:11;10.30;99.90
48876;DHT22;34689;51.644;5.618;2023-04-24T15:25:38;10.20;99.90
48876;DHT22;34689;51.644;5.618;2023-04-24T15:28:04;10.10;99.90
48876;DHT22;34689;51.644;5.618;2023-04-24T15:30:33;10.00;99.90
48876;DHT22;34689;51.644;5.618;2023-04-24T15:33:00;10.00;99.90
48876;DHT22;34689;51.644;5.618;2023-04-24T15:35:26;9.90;99.90
48876;DHT22;34689;51.644;5.618;2023-04-24T15:37:52;9.90;99.90
48876;DHT22;34689;51.644;5.618;2023-04-24T15:40:25;9.90;99.90
48876;DHT22;34689;51.644;5.618;2023-04-24T15:42:50;9.90;99.90
48876;DHT22;34689;51.644;5.618;2023-04-24T15:45:19;9.80;99.90
48876;DHT22;34689;51.644;5.618;2023-04-24T15:47:45;9.90;99.90
48876;DHT22;34689;51.644;5.618;2023-04-24T15:50:17;9.90;99.90
48876;DHT22;34689;51.644;5.618;2023-04-24T15:52:44;9.90;99.90
48876;DHT22;34689;51.644;5.618;2023-04-24T15:55:10;9.90;99.90
48876;DHT22;34689;51.644;5.618;2023-04-24T15:57:37;10.00;99.90
48876;DHT22;34689;51.644;5.618;2023-04-24T16:00:04;10.00;99.90
48876;DHT22;34689;51.644;5.618;2023-04-24T16:02:35;10.00;99.90
48876;DHT22;34689;51.644;5.618;2023-04-24T16:05:03;10.10;99.90